Mareeba, Australia

10:20 PM AEST on February 25, 2017 (GMT +1000)
Mareeba, Queensland | | Change Station

Elev 1329 ft 16.99 °S, 145.44 °E | Updated 13 minutes ago

Mostly Cloudy
Mostly Cloudy
75.4 °F
Feels Like 75 °F
N
1.2
Wind Variable Wind from West

Today
High -- | Low -- °F
--% Chance of Precip.
Yesterday
High -- | Low -- °F
Precip. -- in
Pressure 29.83 in
Visibility 6.2 miles
Clouds Few 2300 ft
Mostly Cloudy 12000 ft
Heat Index 75 °F
Dew Point 72 °F
Humidity 90%
Rainfall 0.11 in
Snow Depth Not available.
6:16 AM 6:45 PM
Waning Crescent, 1% visible
METAR YBCS 251200Z 00000KT 9999 FEW023 BKN120 24/23 Q1010 NOSIG
Pressure 29.83 in
Visibility 6.2 miles
Clouds Few 2300 ft
Mostly Cloudy 12000 ft
Heat Index 75 °F
Dew Point 72 °F
Humidity 90%
Rainfall 0.11 in
Snow Depth Not available.
6:16 AM 6:45 PM
Waning Crescent, 1% visible
METAR YBCS 251200Z 00000KT 9999 FEW023 BKN120 24/23 Q1010 NOSIG

Get Your Daily Forecast Email!

Thanks for signing up!

Be on the lookout for a verification email in your inbox.

You'll start receiving the daily forecast at 8 AM.

×

10-Day Weather Forecast

×

Almanac

Astronomy

Feb. 25, 2017 Rise Set
Actual Time
Civil Twilight
Nautical Twilight
Astronomical Twilight
Moon
Length of Visible Light
Length of Day
Tomorrow will be .
, % of the Moon is Illuminated

Today's Extremes

Country Highs Country Lows

Community

WunderPhotos

Upload Photos

1,962,540 photos uploaded!

WunderBlog® & News

Nearby

Air Quality

  Air Quality AQ Index Pollutant
Not available.

Snow Depth

Station Depth Elevation

Earthquake Activity

City Distance Mag. Time & Date
Minimum magnitude displayed is 2.5.

Coastal Water Temperatures

Place Temperature

Stations

Nearby Weather Stations

Station Location Temp. Windchill Dew Point Humidity Wind Precip. Elev Updated Type